Time;durP1;ratioP1;P1;durP2;ratioP2;P2;SDS_P1;SDS_P2;PMS_P1;PMS_P2;Temp;Humidity;BMP_temperature;BMP_pressure;BME280_temperature;BME280_humidity;BME280_pressure;Samples;Min_cycle;Max_cycle;Signal;HPM_P1;HPM_P2
2022/01/31 08:04:30;;;;;;;;;;;6.30;99.90;;;;;;4999545;28;20450;-84
2022/01/31 08:06:59;;;;;;;;;;;6.20;99.90;;;;;;4982833;28;19937;-83
2022/01/31 08:09:34;;;;;;;;;;;6.20;99.90;;;;;;4986945;28;19934;-84
2022/01/31 08:12:09;;;;;;;;;;;6.20;99.90;;;;;;4986219;28;20417;-84
2022/01/31 08:14:40;;;;;;;;;;;6.70;99.90;;;;;;4986469;28;19933;-85
2022/01/31 08:17:18;;;;;;;;;;;6.20;99.90;;;;;;4992269;28;20141;-85
2022/01/31 08:19:56;;;;;;;;;;;6.20;99.90;;;;;;5015832;28;19934;-85
2022/01/31 08:22:30;;;;;;;;;;;6.20;99.90;;;;;;4987980;28;20260;-84
2022/01/31 08:24:59;;;;;;;;;;;6.20;99.90;;;;;;5019976;28;19938;-85
2022/01/31 08:27:37;;;;;;;;;;;6.30;99.90;;;;;;5018934;28;19930;-86
2022/01/31 08:30:10;;;;;;;;;;;6.60;99.90;;;;;;4999527;28;19926;-86
2022/01/31 08:33:38;;;;;;;;;;;6.20;99.90;;;;;;4977292;28;20091;-85
2022/01/31 08:36:42;;;;;;;;;;;6.30;99.90;;;;;;4926586;29;20514;-87
2022/01/31 08:39:37;;;;;;;;;;;6.60;99.90;;;;;;4925761;29;19934;-85
2022/01/31 08:42:31;;;;;;;;;;;6.40;99.90;;;;;;4924623;29;19938;-85
2022/01/31 08:45:14;;;;;;;;;;;6.40;99.90;;;;;;4911923;29;19938;-84
2022/01/31 08:48:26;;;;;;;;;;;6.50;99.90;;;;;;4924383;29;19927;-83
2022/01/31 08:51:17;;;;;;;;;;;5.00;99.90;;;;;;4931577;29;19935;-86
2022/01/31 08:53:50;;;;;;;;;;;6.40;99.90;;;;;;4995316;28;19938;-84
2022/01/31 08:56:21;;;;;;;;;;;6.30;99.90;;;;;;4982802;28;19952;-84
2022/01/31 08:58:52;;;;;;;;;;;7.50;99.90;;;;;;4984559;28;19940;-84
2022/01/31 09:01:51;;;;;;;;;;;6.30;99.90;;;;;;5002899;28;20450;-87
2022/01/31 09:04:33;;;;;;;;;;;6.50;99.90;;;;;;5014216;28;19940;-84
2022/01/31 09:07:12;;;;;;;;;;;6.40;99.90;;;;;;4999089;28;19930;-83
2022/01/31 09:09:40;;;;;;;;;;;6.30;99.90;;;;;;4985633;28;19930;-85
2022/01/31 09:12:09;;;;;;;;;;;6.60;99.90;;;;;;4982279;28;19936;-84
2022/01/31 09:14:37;;;;;;;;;;;6.40;99.90;;;;;;4986599;28;19926;-85
2022/01/31 09:17:15;;;;;;;;;;;6.60;99.90;;;;;;4985321;28;20253;-83
2022/01/31 09:19:44;;;;;;;;;;;6.60;99.90;;;;;;4998820;28;20439;-84
2022/01/31 09:22:20;;;;;;;;;;;6.60;99.90;;;;;;5012612;28;19950;-84
2022/01/31 09:24:50;;;;;;;;;;;6.80;99.90;;;;;;4985076;28;19941;-84
2022/01/31 09:27:18;;;;;;;;;;;6.70;99.90;;;;;;4985996;28;20450;-84
2022/01/31 09:29:46;;;;;;;;;;;6.50;99.90;;;;;;4988904;28;20066;-84
2022/01/31 09:32:24;;;;;;;;;;;6.50;99.90;;;;;;4965738;28;20097;-83
2022/01/31 09:34:55;;;;;;;;;;;7.40;99.90;;;;;;4996197;28;19926;-84
2022/01/31 09:37:23;;;;;;;;;;;6.80;99.50;;;;;;4986192;28;19930;-85
2022/01/31 09:39:51;;;;;;;;;;;6.80;99.40;;;;;;4999833;28;19926;-84
2022/01/31 09:42:30;;;;;;;;;;;6.80;99.30;;;;;;4983296;28;19936;-85
2022/01/31 09:50:27;;;;;;;;;;;6.90;97.70;;;;;;4983786;28;19938;-83
2022/01/31 09:52:58;;;;;;;;;;;7.10;96.70;;;;;;4982853;28;19926;-84
2022/01/31 09:55:27;;;;;;;;;;;7.30;96.90;;;;;;4983730;28;19937;-84
2022/01/31 09:58:24;;;;;;;;;;;7.10;96.90;;;;;;5008214;28;19940;-83
2022/01/31 10:01:05;;;;;;;;;;;7.20;95.80;;;;;;4983364;28;19926;-84
2022/01/31 10:03:53;;;;;;;;;;;8.60;96.10;;;;;;4982766;28;19930;-84
2022/01/31 10:06:26;;;;;;;;;;;7.30;95.60;;;;;;5003054;28;20262;-84
2022/01/31 10:09:09;;;;;;;;;;;7.20;95.80;;;;;;4989563;28;20281;-84
2022/01/31 10:11:47;;;;;;;;;;;8.10;95.50;;;;;;5007783;28;19926;-84
2022/01/31 10:17:05;;;;;;;;;;;7.30;95.70;;;;;;4987855;28;19930;-84
2022/01/31 10:19:55;;;;;;;;;;;7.40;95.80;;;;;;4986759;28;19933;-85
2022/01/31 10:22:26;;;;;;;;;;;7.50;95.40;;;;;;4968474;28;19931;-84
2022/01/31 10:25:01;;;;;;;;;;;5.70;94.90;;;;;;4999139;28;19926;-86
2022/01/31 10:28:12;;;;;;;;;;;7.40;95.40;;;;;;5009999;28;19940;-85
2022/01/31 10:31:24;;;;;;;;;;;7.00;95.70;;;;;;4991915;28;19925;-84
2022/01/31 10:34:18;;;;;;;;;;;7.40;95.80;;;;;;4985730;28;19930;-85
2022/01/31 10:37:03;;;;;;;;;;;7.70;94.80;;;;;;5020324;28;20124;-84
2022/01/31 10:52:04;;;;;;;;;;;8.90;93.50;;;;;;4983615;28;19930;-84
2022/01/31 10:54:41;;;;;;;;;;;7.60;93.20;;;;;;4984337;28;19930;-85
2022/01/31 10:57:14;;;;;;;;;;;7.60;93.60;;;;;;4986368;28;19934;-84
2022/01/31 10:59:48;;;;;;;;;;;7.70;92.10;;;;;;4987552;28;19929;-85
2022/01/31 11:02:27;;;;;;;;;;;7.70;92.00;;;;;;4985688;28;19932;-86
2022/01/31 11:05:45;;;;;;;;;;;7.70;91.50;;;;;;4962390;28;20408;-83
2022/01/31 11:08:44;;;;;;;;;;;7.70;92.10;;;;;;4997634;28;19927;-84
2022/01/31 11:11:18;;;;;;;;;;;7.90;92.40;;;;;;4981144;28;21224;-83
2022/01/31 11:13:50;;;;;;;;;;;7.70;91.70;;;;;;4998879;28;20006;-83
2022/01/31 11:20:00;;;;;;;;;;;6.10;90.50;;;;;;4980563;28;20312;-84
2022/01/31 11:22:56;;;;;;;;;;;7.80;91.20;;;;;;4972603;28;19930;-87
2022/01/31 11:25:38;;;;;;;;;;;8.90;88.90;;;;;;4983766;28;19946;-83
2022/01/31 11:28:38;;;;;;;;;;;8.20;88.60;;;;;;4980350;28;19926;-84
2022/01/31 11:31:08;;;;;;;;;;;7.90;88.40;;;;;;5006744;28;19930;-82
2022/01/31 11:36:47;;;;;;;;;;;9.10;89.80;;;;;;4977426;28;19934;-85
2022/01/31 11:43:01;;;;;;;;;;;7.90;90.00;;;;;;4976050;28;19937;-83
2022/01/31 11:45:39;;;;;;;;;;;8.10;89.40;;;;;;5016519;28;19930;-85
2022/01/31 11:48:40;;;;;;;;;;;8.10;89.30;;;;;;4983996;28;19934;-83
2022/01/31 11:51:09;;;;;;;;;;;8.20;88.90;;;;;;4997463;28;19930;-83
2022/01/31 11:54:07;;;;;;;;;;;7.90;89.00;;;;;;4981234;28;20300;-83
2022/01/31 11:56:45;;;;;;;;;;;8.10;90.20;;;;;;5017092;28;19931;-85
2022/01/31 11:59:27;;;;;;;;;;;8.00;89.80;;;;;;4982721;28;19934;-83
2022/01/31 12:01:58;;;;;;;;;;;7.90;90.10;;;;;;5001038;28;19936;-82
2022/01/31 12:04:34;;;;;;;;;;;7.60;90.90;;;;;;5001114;28;19926;-85
2022/01/31 12:07:24;;;;;;;;;;;8.40;90.50;;;;;;4666186;28;9999862;-85
2022/01/31 12:09:56;;;;;;;;;;;8.30;89.60;;;;;;4967690;28;19930;-87
2022/01/31 12:12:38;;;;;;;;;;;8.30;89.70;;;;;;5018984;28;19930;-82
2022/01/31 12:24:07;;;;;;;;;;;8.40;88.40;;;;;;5000918;28;19930;-85
2022/01/31 12:26:40;;;;;;;;;;;7.80;88.50;;;;;;5014019;28;19932;-80
2022/01/31 12:29:10;;;;;;;;;;;8.30;88.90;;;;;;4981586;28;19934;-81
2022/01/31 12:31:47;;;;;;;;;;;8.40;89.00;;;;;;4980391;28;19930;-79
2022/01/31 12:34:17;;;;;;;;;;;8.50;90.00;;;;;;4997615;28;20399;-80
2022/01/31 12:36:50;;;;;;;;;;;8.40;90.00;;;;;;4981303;28;19941;-83
2022/01/31 12:39:42;;;;;;;;;;;8.40;89.40;;;;;;4979939;28;19936;-85
2022/01/31 12:42:52;;;;;;;;;;;8.80;88.90;;;;;;5007519;28;19934;-82
2022/01/31 12:45:21;;;;;;;;;;;8.40;88.30;;;;;;4982375;28;19930;-82
2022/01/31 12:48:08;;;;;;;;;;;8.40;87.40;;;;;;4981731;28;19930;-80
2022/01/31 12:50:37;;;;;;;;;;;8.40;88.30;;;;;;4978014;28;19926;-80
2022/01/31 12:55:58;;;;;;;;;;;8.50;88.40;;;;;;5015603;28;19930;-84
2022/01/31 12:58:31;;;;;;;;;;;8.20;86.20;;;;;;4998136;28;19926;-87
2022/01/31 13:01:15;;;;;;;;;;;8.90;85.90;;;;;;4983641;28;20125;-83
2022/01/31 13:03:46;;;;;;;;;;;8.70;85.10;;;;;;4995110;28;19934;-80
2022/01/31 13:06:31;;;;;;;;;;;8.70;85.90;;;;;;4981814;28;19937;-82
2022/01/31 13:09:03;;;;;;;;;;;9.00;86.40;;;;;;5013359;28;19930;-83
2022/01/31 13:11:41;;;;;;;;;;;8.80;84.80;;;;;;4980774;28;19937;-84
2022/01/31 13:14:14;;;;;;;;;;;8.80;84.90;;;;;;4999588;28;19941;-84
2022/01/31 13:19:39;;;;;;;;;;;8.80;82.20;;;;;;4996700;28;19926;-87
2022/01/31 13:22:14;;;;;;;;;;;9.20;82.20;;;;;;4978087;28;19930;-84
2022/01/31 13:24:44;;;;;;;;;;;9.50;82.30;;;;;;4966109;28;19937;-84
2022/01/31 13:27:19;;;;;;;;;;;8.90;82.10;;;;;;4982354;28;19926;-84
2022/01/31 13:30:12;;;;;;;;;;;8.90;81.60;;;;;;4994604;28;19936;-83
2022/01/31 13:32:40;;;;;;;;;;;7.60;79.90;;;;;;4997902;28;19930;-83
2022/01/31 13:35:15;;;;;;;;;;;8.70;81.90;;;;;;5010521;28;19926;-82
2022/01/31 13:37:47;;;;;;;;;;;8.90;81.70;;;;;;4989285;28;19926;-83
2022/01/31 13:40:14;;;;;;;;;;;9.00;80.40;;;;;;4983162;28;19922;-84
2022/01/31 13:42:55;;;;;;;;;;;9.00;80.70;;;;;;5012259;28;19930;-85
2022/01/31 13:45:31;;;;;;;;;;;9.00;79.30;;;;;;5014812;28;20694;-82
2022/01/31 13:48:09;;;;;;;;;;;9.30;80.40;;;;;;5015887;28;19934;-84
2022/01/31 13:50:44;;;;;;;;;;;9.20;78.50;;;;;;5017827;28;19934;-83
2022/01/31 13:53:16;;;;;;;;;;;9.00;78.50;;;;;;5014040;28;19930;-83
2022/01/31 13:55:50;;;;;;;;;;;8.90;79.40;;;;;;5019286;28;20163;-82
2022/01/31 13:58:28;;;;;;;;;;;8.00;78.70;;;;;;4985935;28;19934;-86
2022/01/31 14:00:57;;;;;;;;;;;8.90;79.60;;;;;;4987485;28;19936;-82
2022/01/31 14:03:29;;;;;;;;;;;9.00;80.50;;;;;;5007076;28;19926;-82
2022/01/31 14:06:01;;;;;;;;;;;9.10;80.90;;;;;;5001335;28;19938;-83
2022/01/31 14:08:36;;;;;;;;;;;9.20;80.70;;;;;;5015352;28;19933;-84
2022/01/31 14:11:16;;;;;;;;;;;9.20;80.00;;;;;;4988476;28;19930;-82
2022/01/31 14:13:49;;;;;;;;;;;9.10;80.20;;;;;;4988543;28;19930;-82
2022/01/31 14:16:37;;;;;;;;;;;9.20;80.20;;;;;;5003658;28;19933;-82
2022/01/31 14:19:10;;;;;;;;;;;9.20;80.00;;;;;;5002529;28;19926;-84
2022/01/31 14:21:41;;;;;;;;;;;9.40;80.00;;;;;;5020032;28;19930;-82
2022/01/31 14:24:10;;;;;;;;;;;9.20;79.40;;;;;;5013736;28;19926;-85
2022/01/31 14:27:05;;;;;;;;;;;9.20;80.00;;;;;;5002615;28;19936;-82
2022/01/31 14:29:36;;;;;;;;;;;9.20;80.40;;;;;;5005195;28;20413;-83
2022/01/31 14:32:05;;;;;;;;;;;9.20;80.20;;;;;;5006203;28;19933;-85
2022/01/31 14:34:44;;;;;;;;;;;9.20;79.80;;;;;;4988181;28;19958;-84
2022/01/31 14:37:21;;;;;;;;;;;9.00;80.10;;;;;;5018547;28;19926;-82
2022/01/31 14:42:49;;;;;;;;;;;8.90;79.40;;;;;;5020259;28;19930;-83
2022/01/31 14:48:06;;;;;;;;;;;9.40;78.40;;;;;;5001100;28;19930;-82
2022/01/31 14:50:36;;;;;;;;;;;9.10;78.40;;;;;;4990047;28;19930;-83
2022/01/31 14:53:16;;;;;;;;;;;9.10;78.20;;;;;;5005132;28;19930;-84
2022/01/31 14:55:47;;;;;;;;;;;9.00;78.10;;;;;;5016500;28;19930;-84
2022/01/31 14:58:19;;;;;;;;;;;9.20;79.60;;;;;;5003233;28;19930;-85
2022/01/31 15:00:49;;;;;;;;;;;9.10;78.60;;;;;;5003131;28;19941;-83
2022/01/31 15:03:22;;;;;;;;;;;9.20;79.00;;;;;;5003068;28;19941;-83
2022/01/31 15:05:53;;;;;;;;;;;9.20;78.10;;;;;;5005842;28;19926;-80
2022/01/31 15:08:22;;;;;;;;;;;9.20;78.30;;;;;;5018393;28;19945;-83
2022/01/31 15:10:55;;;;;;;;;;;9.30;78.80;;;;;;4978226;28;19933;-83
2022/01/31 15:13:24;;;;;;;;;;;7.70;77.10;;;;;;5014472;28;19926;-84
2022/01/31 15:15:54;;;;;;;;;;;9.40;79.10;;;;;;5017861;28;19936;-83
2022/01/31 15:18:23;;;;;;;;;;;9.30;80.20;;;;;;4985612;28;19930;-83
2022/01/31 15:20:58;;;;;;;;;;;10.20;78.20;;;;;;4986356;28;19926;-83
2022/01/31 15:23:33;;;;;;;;;;;9.50;78.50;;;;;;4986645;28;19933;-79
2022/01/31 15:26:03;;;;;;;;;;;9.70;79.20;;;;;;4984527;28;19960;-82
2022/01/31 15:28:31;;;;;;;;;;;9.70;78.10;;;;;;4983274;28;19930;-84
2022/01/31 15:31:00;;;;;;;;;;;9.90;78.20;;;;;;4984091;28;19926;-80
2022/01/31 15:33:31;;;;;;;;;;;9.80;77.70;;;;;;5013178;28;19944;-80
2022/01/31 15:36:02;;;;;;;;;;;9.70;77.60;;;;;;5003026;28;19930;-84
2022/01/31 15:38:30;;;;;;;;;;;9.10;78.20;;;;;;4985847;28;19930;-82
2022/01/31 15:40:59;;;;;;;;;;;9.20;79.40;;;;;;5001560;28;19930;-81
2022/01/31 15:43:30;;;;;;;;;;;9.00;79.80;;;;;;5017847;28;19926;-82
2022/01/31 15:46:23;;;;;;;;;;;9.00;80.30;;;;;;5010651;28;19926;-80
2022/01/31 15:48:54;;;;;;;;;;;8.60;80.70;;;;;;5007434;28;19930;-83
2022/01/31 15:51:24;;;;;;;;;;;8.60;80.90;;;;;;5003200;28;19934;-81
2022/01/31 15:53:52;;;;;;;;;;;8.40;81.40;;;;;;4979103;28;19934;-81
2022/01/31 15:56:20;;;;;;;;;;;8.40;82.70;;;;;;5000184;28;19953;-80
2022/01/31 15:58:51;;;;;;;;;;;8.30;81.70;;;;;;4988004;28;19930;-81
2022/01/31 16:01:23;;;;;;;;;;;8.30;82.30;;;;;;4998056;28;19930;-82
2022/01/31 16:03:53;;;;;;;;;;;8.30;82.60;;;;;;4973600;28;19934;-80
2022/01/31 16:06:23;;;;;;;;;;;8.20;82.40;;;;;;5005143;28;19944;-80
2022/01/31 16:08:58;;;;;;;;;;;8.30;83.00;;;;;;4976945;28;19930;-79
2022/01/31 16:11:27;;;;;;;;;;;7.30;82.80;;;;;;4976786;28;19934;-80
2022/01/31 16:14:17;;;;;;;;;;;8.20;83.30;;;;;;5008939;28;20614;-79
2022/01/31 16:16:46;;;;;;;;;;;8.20;83.40;;;;;;5007614;28;19930;-80
2022/01/31 16:19:31;;;;;;;;;;;8.20;84.20;;;;;;5008558;28;19930;-80
2022/01/31 16:21:59;;;;;;;;;;;8.30;84.60;;;;;;4980382;28;19930;-80
2022/01/31 16:24:27;;;;;;;;;;;8.10;85.90;;;;;;5007628;28;19930;-79
2022/01/31 16:26:57;;;;;;;;;;;8.20;85.90;;;;;;5008555;28;19926;-81
2022/01/31 16:29:29;;;;;;;;;;;8.70;86.80;;;;;;5009936;28;19934;-81
2022/01/31 16:31:57;;;;;;;;;;;8.00;85.80;;;;;;5011221;28;19933;-83
2022/01/31 16:34:25;;;;;;;;;;;7.90;86.10;;;;;;4978729;28;19934;-81
2022/01/31 16:36:54;;;;;;;;;;;7.90;86.80;;;;;;5011732;28;19926;-85
2022/01/31 16:39:24;;;;;;;;;;;7.80;87.00;;;;;;5007131;28;19929;-82
2022/01/31 16:41:52;;;;;;;;;;;7.80;87.80;;;;;;4979278;28;19930;-85
2022/01/31 16:44:20;;;;;;;;;;;7.70;87.90;;;;;;4979191;28;19930;-85
2022/01/31 16:46:51;;;;;;;;;;;7.70;88.10;;;;;;4996353;28;19944;-81
2022/01/31 16:49:21;;;;;;;;;;;7.60;89.00;;;;;;5013226;28;19936;-83
2022/01/31 16:51:50;;;;;;;;;;;7.60;88.90;;;;;;5011789;28;19926;-85
2022/01/31 16:54:18;;;;;;;;;;;7.50;89.50;;;;;;5012738;28;19936;-85
2022/01/31 16:56:54;;;;;;;;;;;7.50;90.50;;;;;;4982943;28;19938;-84
2022/01/31 16:59:42;;;;;;;;;;;7.40;90.20;;;;;;5009598;28;19934;-85
2022/01/31 17:02:14;;;;;;;;;;;7.30;90.50;;;;;;5013497;28;19937;-85
2022/01/31 17:04:45;;;;;;;;;;;7.20;90.70;;;;;;4996445;28;19930;-87
2022/01/31 17:07:13;;;;;;;;;;;7.30;90.90;;;;;;4980915;28;19930;-84
2022/01/31 17:09:46;;;;;;;;;;;6.50;91.30;;;;;;4979198;28;19937;-82
2022/01/31 17:12:17;;;;;;;;;;;7.30;91.40;;;;;;4996789;28;20407;-83
2022/01/31 17:14:47;;;;;;;;;;;7.30;91.40;;;;;;4663884;28;10001119;-84
2022/01/31 17:17:16;;;;;;;;;;;7.20;91.60;;;;;;4982279;28;19910;-85
2022/01/31 17:19:45;;;;;;;;;;;7.20;92.50;;;;;;4996179;28;19985;-83
2022/01/31 17:22:19;;;;;;;;;;;6.90;91.80;;;;;;5011939;28;19934;-86
2022/01/31 17:25:03;;;;;;;;;;;7.30;91.90;;;;;;4994579;28;20451;-87
2022/01/31 17:27:36;;;;;;;;;;;7.20;93.20;;;;;;4980549;28;19934;-86
2022/01/31 17:30:16;;;;;;;;;;;7.40;92.40;;;;;;4977963;28;19934;-84
2022/01/31 17:32:50;;;;;;;;;;;7.30;92.50;;;;;;4991517;28;19934;-84
2022/01/31 17:35:19;;;;;;;;;;;7.20;93.10;;;;;;4974350;28;19934;-83
2022/01/31 17:37:48;;;;;;;;;;;7.10;93.30;;;;;;5009132;28;19934;-83
2022/01/31 17:40:20;;;;;;;;;;;7.90;93.80;;;;;;4978276;28;20567;-83
2022/01/31 17:42:57;;;;;;;;;;;7.00;93.30;;;;;;5009355;28;19938;-84
2022/01/31 17:45:29;;;;;;;;;;;6.90;93.60;;;;;;4979810;28;19937;-83
2022/01/31 17:48:08;;;;;;;;;;;6.90;93.30;;;;;;4996844;28;19927;-86
2022/01/31 17:50:43;;;;;;;;;;;6.90;93.80;;;;;;4984207;28;19930;-86
2022/01/31 17:53:14;;;;;;;;;;;6.90;94.30;;;;;;5011829;28;19941;-85
2022/01/31 17:55:49;;;;;;;;;;;7.00;94.90;;;;;;4981462;28;19926;-86
2022/01/31 17:58:21;;;;;;;;;;;7.10;94.80;;;;;;4983895;28;19938;-87
2022/01/31 18:00:49;;;;;;;;;;;6.90;94.60;;;;;;5012787;28;19934;-87
2022/01/31 18:03:18;;;;;;;;;;;6.90;95.70;;;;;;4980076;28;19934;-85
2022/01/31 18:05:47;;;;;;;;;;;6.60;95.60;;;;;;5012712;28;19926;-86
2022/01/31 18:08:35;;;;;;;;;;;7.30;95.40;;;;;;4993013;28;19936;-87
2022/01/31 18:11:24;;;;;;;;;;;7.00;95.30;;;;;;4994286;28;19934;-85
2022/01/31 18:14:06;;;;;;;;;;;6.70;95.70;;;;;;4992379;28;19926;-85
2022/01/31 18:16:35;;;;;;;;;;;6.50;95.40;;;;;;4981651;28;19930;-85
2022/01/31 18:19:04;;;;;;;;;;;6.90;95.70;;;;;;4981882;28;19934;-83
2022/01/31 18:21:34;;;;;;;;;;;6.70;96.10;;;;;;4981138;28;19934;-84
2022/01/31 18:24:06;;;;;;;;;;;6.70;96.00;;;;;;4980443;28;19934;-82
2022/01/31 18:26:33;;;;;;;;;;;6.60;95.90;;;;;;4995091;28;19940;-83
2022/01/31 18:29:02;;;;;;;;;;;6.70;96.70;;;;;;4978845;28;19922;-83
2022/01/31 18:31:34;;;;;;;;;;;6.60;96.20;;;;;;4981158;28;19942;-82
2022/01/31 18:34:11;;;;;;;;;;;6.70;96.50;;;;;;5015584;28;19934;-85
2022/01/31 18:36:40;;;;;;;;;;;6.60;96.90;;;;;;4987226;28;19941;-84
2022/01/31 18:39:10;;;;;;;;;;;6.50;97.30;;;;;;4986205;28;19926;-87
2022/01/31 18:41:41;;;;;;;;;;;6.40;97.00;;;;;;5019397;28;19926;-84
2022/01/31 18:44:13;;;;;;;;;;;6.50;97.50;;;;;;5020184;28;20410;-84
2022/01/31 18:46:42;;;;;;;;;;;6.30;98.10;;;;;;4993121;23;19921;-94
2022/01/31 18:49:16;;;;;;;;;;;6.90;98.30;;;;;;5009592;28;19933;-93
2022/01/31 18:51:58;;;;;;;;;;;6.40;98.40;;;;;;5004930;28;19934;-95
2022/01/31 18:54:35;;;;;;;;;;;6.20;98.70;;;;;;4970568;28;19930;-93
2022/01/31 18:57:12;;;;;;;;;;;6.70;98.90;;;;;;4990843;28;19926;-95
2022/01/31 19:00:28;;;;;;;;;;;8.20;99.50;;;;;;4999452;28;19932;-93
2022/01/31 20:24:22;;;;;;;;;;;6.00;99.90;;;;;;4932729;28;19938;-82
2022/01/31 20:26:51;;;;;;;;;;;5.90;99.90;;;;;;4928405;28;19935;-84
2022/01/31 20:29:22;;;;;;;;;;;6.00;99.90;;;;;;4993502;28;19938;-84
2022/01/31 20:31:50;;;;;;;;;;;7.60;99.90;;;;;;4971485;28;19927;-82
2022/01/31 20:34:20;;;;;;;;;;;5.40;99.90;;;;;;4929024;28;19945;-87
2022/01/31 20:37:02;;;;;;;;;;;6.00;99.90;;;;;;4991225;28;19927;-88
2022/01/31 20:39:57;;;;;;;;;;;5.90;99.90;;;;;;4995024;28;19938;-85
2022/01/31 20:42:25;;;;;;;;;;;6.10;99.90;;;;;;4998330;28;19931;-84
2022/01/31 20:44:53;;;;;;;;;;;6.00;99.90;;;;;;5006793;28;19950;-82
2022/01/31 20:47:25;;;;;;;;;;;6.00;99.90;;;;;;4917821;28;21012;-83
2022/01/31 20:49:56;;;;;;;;;;;6.00;99.90;;;;;;4989432;28;19935;-83
2022/01/31 20:52:28;;;;;;;;;;;6.20;99.90;;;;;;4971309;28;19927;-83
2022/01/31 20:55:00;;;;;;;;;;;7.10;99.90;;;;;;4910186;28;19936;-84
2022/01/31 20:57:29;;;;;;;;;;;6.20;99.90;;;;;;4968376;28;19928;-83
2022/01/31 20:59:58;;;;;;;;;;;6.40;99.90;;;;;;4971905;28;20561;-84
2022/01/31 21:02:30;;;;;;;;;;;5.90;99.90;;;;;;4972309;28;19934;-85
2022/01/31 21:05:02;;;;;;;;;;;6.80;99.90;;;;;;4965430;28;19935;-83
2022/01/31 21:07:31;;;;;;;;;;;5.80;99.90;;;;;;4907350;28;19946;-81
2022/01/31 21:10:00;;;;;;;;;;;5.80;99.90;;;;;;4906324;28;19964;-85
2022/01/31 21:12:34;;;;;;;;;;;5.80;99.90;;;;;;4909200;28;19932;-84
2022/01/31 21:15:04;;;;;;;;;;;5.90;99.90;;;;;;4905239;29;19938;-83
2022/01/31 21:17:35;;;;;;;;;;;5.70;99.90;;;;;;4967102;28;19935;-83
2022/01/31 21:20:07;;;;;;;;;;;5.70;99.90;;;;;;4898322;28;20432;-82
2022/01/31 21:22:37;;;;;;;;;;;6.30;99.90;;;;;;4966159;28;19933;-84
2022/01/31 21:25:06;;;;;;;;;;;5.60;99.90;;;;;;5043384;28;19929;-83
2022/01/31 21:27:35;;;;;;;;;;;5.70;99.90;;;;;;5029921;28;19929;-83
2022/01/31 21:30:04;;;;;;;;;;;5.70;99.90;;;;;;5026748;28;20241;-81
2022/01/31 21:32:39;;;;;;;;;;;5.60;99.90;;;;;;4995471;28;19925;-81
2022/01/31 21:35:09;;;;;;;;;;;5.70;99.90;;;;;;5023576;28;19925;-84
2022/01/31 21:37:41;;;;;;;;;;;6.00;99.90;;;;;;5004752;28;19932;-85
2022/01/31 21:40:11;;;;;;;;;;;5.70;99.90;;;;;;5003166;28;19933;-83
2022/01/31 21:42:59;;;;;;;;;;;5.80;99.90;;;;;;5004355;28;19926;-86
2022/01/31 21:45:28;;;;;;;;;;;6.00;99.90;;;;;;5021706;28;19940;-83
2022/01/31 21:47:57;;;;;;;;;;;6.00;99.90;;;;;;5017103;28;19934;-87
2022/01/31 21:50:26;;;;;;;;;;;6.10;99.90;;;;;;5027617;28;19933;-85
2022/01/31 21:52:55;;;;;;;;;;;7.40;99.90;;;;;;5002127;28;19917;-84
2022/01/31 21:55:25;;;;;;;;;;;6.10;99.90;;;;;;5030466;28;19933;-83
2022/01/31 21:57:56;;;;;;;;;;;6.00;99.90;;;;;;5032076;28;19939;-83
2022/01/31 22:00:24;;;;;;;;;;;6.00;99.90;;;;;;5014182;28;19925;-83
2022/01/31 22:02:53;;;;;;;;;;;6.10;99.90;;;;;;4978869;28;19925;-84
2022/01/31 22:05:24;;;;;;;;;;;6.10;99.90;;;;;;5010759;28;19925;-85
2022/01/31 22:08:00;;;;;;;;;;;6.10;99.90;;;;;;5010950;28;19933;-84
2022/01/31 22:10:35;;;;;;;;;;;6.00;99.90;;;;;;5033070;28;19936;-83
2022/01/31 22:13:03;;;;;;;;;;;6.10;99.90;;;;;;5029062;28;19936;-83
2022/01/31 22:15:32;;;;;;;;;;;6.10;99.90;;;;;;5025306;28;20375;-85
2022/01/31 22:18:01;;;;;;;;;;;6.00;99.90;;;;;;4996114;28;20067;-84
2022/01/31 22:20:29;;;;;;;;;;;6.10;99.90;;;;;;5013044;28;19941;-84
2022/01/31 22:23:00;;;;;;;;;;;6.00;99.90;;;;;;4993754;28;19935;-84
2022/01/31 22:25:32;;;;;;;;;;;6.00;99.90;;;;;;4661891;28;10000564;-84
2022/01/31 22:28:00;;;;;;;;;;;5.90;99.90;;;;;;5005300;28;19937;-84
2022/01/31 22:30:29;;;;;;;;;;;6.20;99.90;;;;;;4986345;28;20123;-84
2022/01/31 22:32:59;;;;;;;;;;;5.90;99.90;;;;;;4944661;28;20331;-83
2022/01/31 22:35:26;;;;;;;;;;;6.00;99.90;;;;;;4994913;28;19928;-82
2022/01/31 22:37:56;;;;;;;;;;;5.90;99.90;;;;;;4997248;28;19928;-84
2022/01/31 22:40:24;;;;;;;;;;;5.90;99.90;;;;;;4994418;28;19943;-83
2022/01/31 22:42:52;;;;;;;;;;;5.90;99.90;;;;;;5007226;28;19931;-83
2022/01/31 22:45:20;;;;;;;;;;;5.90;99.90;;;;;;5006600;28;19931;-83
2022/01/31 22:47:52;;;;;;;;;;;6.10;99.90;;;;;;4958407;28;19933;-83
2022/01/31 22:50:22;;;;;;;;;;;6.00;99.90;;;;;;4979262;28;20580;-84
2022/01/31 22:52:50;;;;;;;;;;;6.00;99.90;;;;;;4921175;29;20352;-84
2022/01/31 22:55:18;;;;;;;;;;;6.20;99.90;;;;;;5007920;28;19927;-83
2022/01/31 22:57:50;;;;;;;;;;;6.20;99.90;;;;;;5008862;28;19934;-84
2022/01/31 23:00:19;;;;;;;;;;;6.00;99.90;;;;;;4992424;28;19927;-83
2022/01/31 23:02:52;;;;;;;;;;;6.00;99.90;;;;;;4991544;28;19949;-83
2022/01/31 23:05:20;;;;;;;;;;;6.00;99.90;;;;;;4992227;28;20300;-82
2022/01/31 23:07:52;;;;;;;;;;;6.00;99.90;;;;;;5012108;28;19931;-83
2022/01/31 23:10:21;;;;;;;;;;;6.10;99.90;;;;;;4962640;28;19927;-84
2022/01/31 23:12:54;;;;;;;;;;;6.00;99.90;;;;;;4992680;28;19927;-82
2022/01/31 23:15:45;;;;;;;;;;;5.90;99.90;;;;;;4993387;28;19946;-84
2022/01/31 23:21:20;;;;;;;;;;;4.30;99.90;;;;;;5005369;28;19931;-86
2022/01/31 23:44:53;;;;;;;;;;;7.60;99.90;;;;;;5029440;28;19925;-83
2022/01/31 23:52:44;;;;;;;;;;;5.80;99.90;;;;;;5011186;28;19929;-83
2022/01/31 23:55:24;;;;;;;;;;;6.40;99.90;;;;;;5026245;28;19936;-84
